Time;durP1;ratioP1;P1;durP2;ratioP2;P2;SDS_P1;SDS_P2;PMS_P1;PMS_P2;Temp;Humidity;BMP_temperature;BMP_pressure;BME280_temperature;BME280_humidity;BME280_pressure;Samples;Min_cycle;Max_cycle;Signal;HPM_P1;HPM_P2
2022/11/04 00:01:52;;;;;;;10.95;5.38;;;11.60;99.90;;;;;;5105692;28;20071;-55
2022/11/04 00:04:20;;;;;;;5.47;3.40;;;11.60;99.90;;;;;;5106766;28;20531;-53
2022/11/04 00:06:46;;;;;;;2.95;2.20;;;11.50;99.90;;;;;;5097224;28;20032;-52
2022/11/04 00:09:22;;;;;;;3.10;1.70;;;11.50;99.90;;;;;;5089168;28;20462;-51
2022/11/04 00:14:33;;;;;;;1.75;1.15;;;11.50;99.90;;;;;;5108574;28;20043;-53
2022/11/04 00:30:57;;;;;;;0.65;0.20;;;11.30;99.90;;;;;;5110675;28;20047;-52
2022/11/04 00:33:26;;;;;;;0.88;0.32;;;11.30;99.90;;;;;;5090375;28;20137;-51
2022/11/04 00:35:54;;;;;;;1.45;0.20;;;11.30;99.90;;;;;;5091535;28;20032;-51
2022/11/04 00:38:20;;;;;;;2.28;0.20;;;11.30;99.90;;;;;;5107682;28;20046;-54
2022/11/04 00:40:46;;;;;;;0.68;0.15;;;11.30;99.90;;;;;;5110886;28;20036;-52
2022/11/04 00:43:11;;;;;;;1.67;0.20;;;11.20;99.90;;;;;;5094741;28;20097;-50
2022/11/04 00:45:40;;;;;;;1.13;0.20;;;11.20;99.90;;;;;;5090360;28;20043;-52
2022/11/04 00:48:06;;;;;;;2.00;0.15;;;11.20;99.90;;;;;;5091571;28;20119;-50
2022/11/04 00:50:31;;;;;;;1.95;0.40;;;11.20;99.90;;;;;;5090108;28;20221;-51
2022/11/04 00:53:01;;;;;;;1.23;0.17;;;11.10;99.90;;;;;;5101536;28;20416;-53
2022/11/04 00:55:27;;;;;;;2.10;0.20;;;11.20;99.90;;;;;;5110148;28;20040;-53
2022/11/04 00:57:53;;;;;;;1.88;0.30;;;11.10;99.90;;;;;;5108904;28;20071;-53
2022/11/04 01:00:19;;;;;;;0.70;0.10;;;11.10;99.90;;;;;;5109973;28;20134;-54
2022/11/04 01:02:45;;;;;;;1.97;0.37;;;11.10;99.90;;;;;;5102354;28;20533;-52
2022/11/04 01:05:11;;;;;;;0.63;0.17;;;11.00;99.90;;;;;;5103542;28;20678;-52
2022/11/04 01:07:37;;;;;;;0.50;0.10;;;11.00;99.90;;;;;;5109349;28;20157;-51
2022/11/04 01:10:03;;;;;;;0.73;0.10;;;11.00;99.90;;;;;;5091059;28;20028;-53
2022/11/04 01:12:28;;;;;;;;;;;11.00;99.90;;;;;;5095689;28;20042;-51
2022/11/04 01:14:54;;;;;;;0.35;0.10;;;11.00;99.90;;;;;;5104831;28;19916;-51
2022/11/04 01:17:20;;;;;;;0.30;0.10;;;11.00;99.90;;;;;;5093523;28;20036;-53
2022/11/04 01:19:45;;;;;;;0.10;0.10;;;10.90;99.90;;;;;;5094061;28;20301;-52
2022/11/04 01:22:11;;;;;;;1.17;0.20;;;10.90;99.90;;;;;;5093336;28;20044;-54
2022/11/04 01:24:36;;;;;;;0.70;0.10;;;10.90;99.90;;;;;;5093429;28;20036;-55
2022/11/04 01:27:02;;;;;;;3.03;0.20;;;10.90;99.90;;;;;;5093781;28;20296;-54
2022/11/04 01:29:27;;;;;;;0.33;0.13;;;10.90;99.90;;;;;;5093866;28;20032;-52
2022/11/04 01:31:53;;;;;;;0.20;0.10;;;10.90;99.90;;;;;;5093526;28;20483;-54
2022/11/04 01:34:19;;;;;;;0.50;0.17;;;10.80;99.90;;;;;;5093198;28;20040;-54
2022/11/04 01:36:44;;;;;;;2.17;0.20;;;10.80;99.90;;;;;;5093240;28;20067;-53
2022/11/04 01:39:12;;;;;;;0.80;0.60;;;10.80;99.90;;;;;;5093349;28;20278;-53
2022/11/04 01:41:37;;;;;;;2.95;0.70;;;10.80;99.90;;;;;;5093591;28;20040;-55
2022/11/04 01:44:42;;;;;;;0.88;0.50;;;10.80;99.90;;;;;;5101828;28;20031;-54
2022/11/04 01:47:23;;;;;;;2.88;0.68;;;10.80;99.90;;;;;;5111580;28;20515;-53
2022/11/04 01:50:14;;;;;;;1.25;1.00;;;10.80;99.90;;;;;;5099390;28;20035;-54
2022/11/04 01:52:46;;;;;;;8.00;1.58;;;10.90;99.90;;;;;;5108049;28;20048;-54
2022/11/04 01:55:19;;;;;;;2.75;1.40;;;10.90;99.90;;;;;;5095471;28;20318;-53
2022/11/04 01:57:47;;;;;;;2.63;1.10;;;10.90;99.90;;;;;;5093518;28;20080;-51
2022/11/04 02:00:14;;;;;;;3.72;1.10;;;10.90;99.90;;;;;;5105817;28;20054;-50
2022/11/04 02:02:49;;;;;;;2.20;2.00;;;10.90;99.90;;;;;;5105859;28;20107;-53
2022/11/04 02:05:15;;;;;;;13.07;3.22;;;10.90;99.90;;;;;;5100132;28;20044;-52
2022/11/04 02:07:41;;;;;;;4.53;3.05;;;11.00;99.90;;;;;;5094013;28;20093;-54
2022/11/04 02:10:07;;;;;;;4.47;3.85;;;11.00;99.90;;;;;;5101974;28;20549;-55
2022/11/04 02:12:50;;;;;;;5.72;4.93;;;11.00;99.90;;;;;;5094496;28;20512;-54
2022/11/04 02:15:44;;;;;;;4.78;4.35;;;11.00;99.90;;;;;;5094446;28;20058;-53
2022/11/04 02:18:12;;;;;;;7.07;4.95;;;11.00;99.90;;;;;;5107791;28;20111;-52
2022/11/04 02:21:06;;;;;;;6.75;5.60;;;11.00;99.90;;;;;;5096139;28;20082;-55
2022/11/04 02:23:52;;;;;;;10.98;6.32;;;11.00;99.90;;;;;;5089029;28;20061;-55
2022/11/04 02:26:55;;;;;;;5.47;4.70;;;11.00;99.90;;;;;;5102527;28;20043;-55
2022/11/04 02:29:30;;;;;;;7.22;4.97;;;11.00;99.90;;;;;;5110612;28;20047;-54
2022/11/04 02:32:17;;;;;;;8.52;5.53;;;11.10;99.90;;;;;;5112648;28;20039;-54
2022/11/04 02:34:54;;;;;;;7.45;6.57;;;11.10;99.90;;;;;;5078680;28;20096;-54
2022/11/04 02:37:57;;;;;;;7.65;6.78;;;11.10;99.90;;;;;;5092479;28;21356;-52
2022/11/04 02:40:46;;;;;;;8.20;7.03;;;11.10;99.90;;;;;;5082649;28;20040;-50
2022/11/04 02:43:25;;;;;;;8.82;7.93;;;11.10;99.90;;;;;;5084196;28;20314;-53
2022/11/04 02:46:21;;;;;;;4.03;3.63;;;11.10;99.90;;;;;;5094665;28;20071;-51
2022/11/04 02:49:16;;;;;;;6.00;4.38;;;11.00;99.90;;;;;;5096701;28;20533;-52
2022/11/04 02:51:51;;;;;;;4.35;4.05;;;11.00;99.90;;;;;;5111724;28;20082;-53
2022/11/04 02:54:31;;;;;;;5.82;5.32;;;10.90;99.90;;;;;;5102469;28;20044;-53
2022/11/04 02:56:59;;;;;;;8.52;7.32;;;10.90;99.90;;;;;;5092017;28;20513;-51
2022/11/04 02:59:29;;;;;;;6.95;5.93;;;10.90;99.90;;;;;;5100778;28;20085;-51
2022/11/04 03:01:56;;;;;;;8.18;7.05;;;10.90;99.90;;;;;;5111850;28;20027;-54
2022/11/04 03:04:28;;;;;;;9.30;7.72;;;10.90;99.90;;;;;;5103392;28;20051;-51
2022/11/04 03:06:56;;;;;;;10.20;6.85;;;10.90;99.90;;;;;;5093129;28;20032;-54
2022/11/04 03:09:22;;;;;;;10.43;6.88;;;10.90;99.90;;;;;;5099391;28;20034;-51
2022/11/04 03:11:52;;;;;;;;;;;10.90;99.90;;;;;;5111928;28;20051;-52
2022/11/04 03:14:41;;;;;;;11.75;6.05;;;10.90;99.90;;;;;;5109301;28;20390;-53
2022/11/04 03:17:31;;;;;;;6.93;5.60;;;10.80;99.90;;;;;;5091764;28;20036;-51
2022/11/04 03:19:58;;;;;;;4.55;4.05;;;10.80;99.90;;;;;;5091420;28;20051;-52
2022/11/04 03:22:27;;;;;;;3.97;2.22;;;10.80;99.90;;;;;;5091308;28;20221;-50
2022/11/04 03:24:53;;;;;;;2.38;2.17;;;10.80;99.90;;;;;;5089528;28;20040;-54
2022/11/04 03:27:19;;;;;;;;;;;10.80;99.90;;;;;;5091638;28;20040;-53
2022/11/04 03:29:55;;;;;;;2.55;1.77;;;10.80;99.90;;;;;;5091451;28;19927;-51
2022/11/04 03:32:21;;;;;;;2.85;1.60;;;10.70;99.90;;;;;;5090502;28;20031;-51
2022/11/04 03:34:47;;;;;;;3.00;1.63;;;10.70;99.90;;;;;;5090833;28;20379;-52
2022/11/04 03:37:13;;;;;;;1.25;1.05;;;10.70;99.90;;;;;;5091393;28;20032;-51
2022/11/04 03:39:38;;;;;;;4.20;1.52;;;10.60;99.90;;;;;;5090708;28;20040;-50
2022/11/04 03:42:18;;;;;;;3.78;1.25;;;10.60;99.90;;;;;;5089937;28;20043;-53
2022/11/04 03:44:53;;;;;;;1.50;0.70;;;10.60;99.90;;;;;;5090884;28;20444;-51
2022/11/04 03:47:21;;;;;;;2.33;0.80;;;10.50;99.90;;;;;;5092263;28;20057;-51
2022/11/04 03:49:48;;;;;;;3.67;0.75;;;10.50;99.90;;;;;;5092382;28;20036;-52
2022/11/04 03:52:15;;;;;;;1.35;0.50;;;10.50;99.90;;;;;;5111314;28;20126;-52
2022/11/04 03:54:41;;;;;;;1.00;0.40;;;10.50;99.90;;;;;;5111201;28;20040;-51
2022/11/04 03:57:35;;;;;;;0.85;0.30;;;10.40;99.90;;;;;;5092926;28;20050;-55
2022/11/04 04:00:18;;;;;;;0.32;0.17;;;10.40;99.90;;;;;;5092194;28;20051;-51
2022/11/04 04:02:56;;;;;;;2.22;0.38;;;10.40;99.90;;;;;;5085995;28;20036;-53
2022/11/04 04:05:34;;;;;;;2.25;0.20;;;10.30;99.90;;;;;;5098284;28;20048;-52
2022/11/04 04:08:38;;;;;;;0.60;0.20;;;10.30;99.90;;;;;;5105276;28;20036;-52
2022/11/04 04:11:12;;;;;;;2.58;0.10;;;10.30;99.90;;;;;;5095986;28;20058;-53
2022/11/04 04:13:50;;;;;;;6.05;0.10;;;10.20;99.90;;;;;;5099884;28;20040;-53
2022/11/04 04:16:18;;;;;;;1.75;0.10;;;10.20;99.90;;;;;;5092714;28;20485;-51
2022/11/04 04:18:55;;;;;;;2.08;0.10;;;10.20;99.90;;;;;;5096178;28;20039;-54
2022/11/04 04:21:27;;;;;;;0.63;0.30;;;10.10;99.90;;;;;;5104290;28;20048;-55
2022/11/04 04:29:28;;;;;;;2.28;0.17;;;10.10;99.90;;;;;;5090174;28;20090;-55
2022/11/04 04:31:56;;;;;;;1.15;0.13;;;10.10;99.90;;;;;;5097457;28;20496;-52
2022/11/04 04:34:30;;;;;;;0.60;0.20;;;10.10;99.90;;;;;;5110408;28;20044;-54
2022/11/04 04:37:06;;;;;;;1.00;0.30;;;10.10;99.90;;;;;;5102537;28;20400;-54
2022/11/04 04:45:24;;;;;;;5.20;0.40;;;10.10;99.90;;;;;;5110079;28;20127;-54
2022/11/04 04:47:50;;;;;;;1.30;0.40;;;10.10;99.90;;;;;;5107339;28;20484;-54
2022/11/04 04:50:19;;;;;;;1.13;0.30;;;10.10;99.90;;;;;;5109937;28;20484;-54
2022/11/04 04:52:50;;;;;;;7.35;0.40;;;10.20;99.90;;;;;;5100380;28;20523;-55
2022/11/04 04:55:16;;;;;;;0.90;0.50;;;10.20;99.90;;;;;;5089742;28;20044;-53
2022/11/04 04:57:42;;;;;;;1.30;0.40;;;10.20;99.90;;;;;;5091401;28;20040;-54
2022/11/04 05:00:11;;;;;;;2.80;0.60;;;10.20;99.90;;;;;;5090091;28;20223;-54
2022/11/04 05:02:36;;;;;;;1.08;0.40;;;10.20;99.90;;;;;;5095354;28;20415;-52
2022/11/04 05:05:02;;;;;;;2.13;0.60;;;10.20;99.90;;;;;;5105768;28;20046;-54
2022/11/04 05:07:28;;;;;;;3.22;0.52;;;10.20;99.90;;;;;;5091394;28;20032;-51
2022/11/04 05:09:54;;;;;;;5.47;0.60;;;10.20;99.90;;;;;;5107329;28;20043;-54
2022/11/04 05:12:20;;;;;;;1.50;0.73;;;10.20;99.90;;;;;;5105318;28;20036;-51
2022/11/04 05:14:45;;;;;;;1.20;0.60;;;10.20;99.90;;;;;;5081789;28;20439;-52
2022/11/04 05:17:11;;;;;;;1.02;0.52;;;10.20;99.90;;;;;;5098287;28;20047;-53
2022/11/04 05:19:37;;;;;;;1.15;0.50;;;10.10;99.90;;;;;;5089326;28;20462;-51
2022/11/04 05:22:03;;;;;;;1.53;0.50;;;10.20;99.90;;;;;;5090002;28;20072;-53
2022/11/04 05:24:29;;;;;;;3.08;0.38;;;10.10;99.90;;;;;;5089622;28;20040;-50
2022/11/04 05:26:54;;;;;;;1.80;0.60;;;10.10;99.90;;;;;;5089901;28;20430;-52
2022/11/04 05:29:20;;;;;;;4.03;0.67;;;10.10;99.90;;;;;;5090292;28;20531;-51
2022/11/04 05:31:46;;;;;;;0.52;0.45;;;10.10;99.90;;;;;;5089818;28;20302;-51
2022/11/04 05:34:13;;;;;;;1.50;0.70;;;10.00;99.90;;;;;;5089134;28;20070;-51
2022/11/04 05:36:39;;;;;;;3.08;0.75;;;9.90;99.90;;;;;;5090165;28;20481;-50
2022/11/04 05:39:05;;;;;;;2.05;0.30;;;9.90;99.90;;;;;;5090182;28;20509;-50
2022/11/04 05:41:32;;;;;;;0.88;0.30;;;9.90;99.90;;;;;;5089547;28;20489;-53
2022/11/04 05:44:00;;;;;;;0.82;0.47;;;9.80;99.90;;;;;;5089380;28;20040;-54
2022/11/04 05:46:26;;;;;;;2.10;0.60;;;9.80;99.90;;;;;;5089989;28;20442;-53
2022/11/04 05:48:52;;;;;;;;;;;9.80;99.90;;;;;;5097567;28;20139;-52
2022/11/04 05:51:20;;;;;;;1.83;0.40;;;9.70;99.90;;;;;;5102632;28;20014;-54
2022/11/04 05:53:46;;;;;;;1.95;0.50;;;9.70;99.90;;;;;;5092285;28;20032;-53
2022/11/04 05:56:11;;;;;;;1.13;0.50;;;9.70;99.90;;;;;;5099151;28;20040;-52
2022/11/04 05:58:37;;;;;;;1.38;0.30;;;9.60;99.90;;;;;;5093151;28;20119;-50
2022/11/04 06:01:21;;;;;;;2.57;0.73;;;9.60;99.90;;;;;;5103970;28;20492;-52
2022/11/04 06:03:47;;;;;;;1.13;0.70;;;9.60;99.90;;;;;;5102268;28;20378;-52
2022/11/04 06:06:12;;;;;;;0.70;0.33;;;9.50;99.90;;;;;;5093163;28;20039;-51
2022/11/04 06:08:38;;;;;;;1.30;0.50;;;9.50;99.90;;;;;;5093026;28;20130;-52
2022/11/04 06:11:04;;;;;;;2.63;0.40;;;9.50;99.90;;;;;;5096021;28;20046;-53
2022/11/04 06:13:30;;;;;;;2.05;0.40;;;9.40;99.90;;;;;;5093534;28;20039;-54
2022/11/04 06:15:55;;;;;;;1.83;0.98;;;9.40;99.90;;;;;;5093727;28;20409;-53
2022/11/04 06:18:21;;;;;;;2.47;0.40;;;9.40;99.90;;;;;;5092825;28;20036;-53
2022/11/04 06:20:46;;;;;;;2.80;0.50;;;9.40;99.90;;;;;;5095783;28;20040;-53
2022/11/04 06:23:12;;;;;;;1.90;0.60;;;9.40;99.90;;;;;;5112868;28;20868;-51
2022/11/04 06:25:37;;;;;;;2.03;0.40;;;9.30;99.90;;;;;;5109560;28;20078;-54
2022/11/04 06:28:03;;;;;;;1.70;0.87;;;9.30;99.90;;;;;;5092690;28;20040;-51
2022/11/04 06:30:29;;;;;;;1.38;0.30;;;9.30;99.90;;;;;;5091838;28;20024;-51
2022/11/04 06:32:54;;;;;;;0.60;0.23;;;9.30;99.90;;;;;;5111151;28;20093;-53
2022/11/04 06:35:20;;;;;;;0.30;0.20;;;9.30;99.90;;;;;;5104622;28;20120;-53
2022/11/04 06:37:48;;;;;;;0.30;0.20;;;9.30;99.90;;;;;;5092354;28;20048;-50
2022/11/04 06:40:13;;;;;;;1.25;0.28;;;9.40;99.90;;;;;;5092178;28;20040;-51
2022/11/04 06:42:41;;;;;;;1.13;0.20;;;9.30;99.90;;;;;;5092165;28;20036;-51
2022/11/04 06:45:07;;;;;;;0.65;0.22;;;9.30;99.90;;;;;;5091539;28;20075;-52
2022/11/04 06:47:33;;;;;;;3.22;0.93;;;9.30;99.90;;;;;;5108864;28;20504;-53
2022/11/04 06:49:58;;;;;;;4.10;0.83;;;9.40;99.90;;;;;;5111713;28;20038;-52
2022/11/04 06:52:24;;;;;;;1.13;0.57;;;9.40;99.90;;;;;;5099346;28;20031;-55
2022/11/04 06:54:49;;;;;;;2.40;0.80;;;9.40;99.90;;;;;;5095909;28;20501;-55
2022/11/04 06:57:15;;;;;;;0.57;0.47;;;9.40;99.90;;;;;;5090828;28;20496;-54
2022/11/04 06:59:40;;;;;;;6.17;1.17;;;9.40;99.90;;;;;;5091589;28;20351;-54
2022/11/04 07:02:06;;;;;;;3.20;1.00;;;9.40;99.90;;;;;;5092015;28;20047;-55
2022/11/04 07:04:31;;;;;;;1.80;1.33;;;9.40;99.90;;;;;;5091623;28;20039;-55
2022/11/04 07:06:57;;;;;;;7.10;3.13;;;9.40;99.90;;;;;;5091746;28;20040;-54
2022/11/04 07:09:22;;;;;;;3.53;3.23;;;9.40;99.90;;;;;;5092151;28;20044;-54
2022/11/04 07:11:48;;;;;;;5.00;4.07;;;9.40;99.90;;;;;;5091906;28;20504;-54
2022/11/04 07:14:14;;;;;;;8.55;5.93;;;9.40;99.90;;;;;;5090287;28;20339;-55
2022/11/04 07:16:39;;;;;;;9.00;5.22;;;9.40;99.90;;;;;;5092075;28;20044;-51
2022/11/04 07:19:05;;;;;;;7.57;6.07;;;9.40;99.90;;;;;;5092271;28;20067;-55
2022/11/04 07:21:31;;;;;;;12.60;6.57;;;9.40;99.90;;;;;;5091752;28;20044;-52
2022/11/04 07:23:57;;;;;;;9.68;8.27;;;9.40;99.90;;;;;;5088886;28;20054;-54
2022/11/04 07:26:22;;;;;;;10.98;8.75;;;9.40;99.90;;;;;;5090080;28;20036;-53
2022/11/04 07:28:48;;;;;;;12.10;9.30;;;9.40;99.90;;;;;;5107406;28;20039;-55
2022/11/04 07:31:14;;;;;;;13.47;8.87;;;9.40;99.90;;;;;;5091334;28;20308;-51
2022/11/04 07:33:40;;;;;;;13.93;10.32;;;9.40;99.90;;;;;;5093057;28;20122;-51
2022/11/04 07:36:09;;;;;;;17.40;11.23;;;9.50;99.90;;;;;;5091439;28;20127;-51
2022/11/04 07:38:35;;;;;;;15.52;10.63;;;9.90;99.90;;;;;;5102086;28;20057;-54
2022/11/04 07:41:01;;;;;;;13.50;10.37;;;10.50;99.90;;;;;;5110275;28;20508;-53
2022/11/04 07:43:28;;;;;;;11.27;10.10;;;10.80;99.90;;;;;;5099773;28;20505;-53
2022/11/04 07:45:59;;;;;;;12.05;10.48;;;10.70;99.90;;;;;;5092605;28;20434;-51
2022/11/04 07:48:25;;;;;;;13.60;9.85;;;10.50;99.90;;;;;;5096866;28;20094;-53
2022/11/04 07:50:54;;;;;;;14.43;10.40;;;10.30;99.90;;;;;;5091070;28;20032;-51
2022/11/04 07:53:20;;;;;;;12.25;9.95;;;10.10;99.90;;;;;;5093638;28;20110;-52
2022/11/04 07:55:49;;;;;;;16.17;11.33;;;10.00;99.90;;;;;;5098720;28;20116;-51
2022/11/04 07:58:15;;;;;;;16.15;12.10;;;10.00;99.90;;;;;;5092075;28;20043;-51
2022/11/04 08:00:41;;;;;;;13.68;11.82;;;10.10;99.90;;;;;;5090582;28;20039;-53
2022/11/04 08:03:06;;;;;;;15.67;11.17;;;10.10;99.90;;;;;;5090123;28;20079;-52
2022/11/04 08:05:32;;;;;;;15.87;13.53;;;10.20;99.90;;;;;;5106434;28;20035;-52
2022/11/04 08:07:57;;;;;;;17.73;13.40;;;10.20;99.90;;;;;;5111516;28;20039;-53
2022/11/04 08:10:23;;;;;;;18.52;13.13;;;10.20;99.90;;;;;;5091902;28;20405;-51
2022/11/04 08:12:50;;;;;;;21.90;14.73;;;10.20;99.90;;;;;;5090495;28;20560;-52
2022/11/04 08:15:16;;;;;;;17.90;14.20;;;10.30;99.90;;;;;;5091521;28;20390;-52
2022/11/04 08:17:41;;;;;;;19.57;14.43;;;10.40;99.90;;;;;;5088090;28;20043;-51
2022/11/04 08:20:08;;;;;;;19.47;14.73;;;10.50;99.90;;;;;;5097033;28;20071;-51
2022/11/04 08:22:34;;;;;;;17.77;13.57;;;10.60;99.90;;;;;;5107893;28;20281;-53
2022/11/04 08:24:59;;;;;;;24.02;15.18;;;10.60;99.90;;;;;;5108241;28;20043;-50
2022/11/04 08:27:25;;;;;;;17.73;14.77;;;10.60;99.90;;;;;;5101445;28;20511;-51
2022/11/04 08:29:51;;;;;;;18.58;13.65;;;10.80;99.90;;;;;;5090489;28;20036;-50
2022/11/04 08:32:17;;;;;;;19.80;14.00;;;10.90;99.90;;;;;;5095633;28;20028;-50
2022/11/04 08:34:44;;;;;;;18.40;14.35;;;11.00;99.90;;;;;;5103958;28;20110;-63
2022/11/04 08:37:12;;;;;;;;;;;11.10;99.90;;;;;;5094279;28;20051;-50
2022/11/04 08:39:38;;;;;;;20.15;14.30;;;11.40;99.90;;;;;;5109920;28;20340;-49
2022/11/04 08:42:03;;;;;;;18.37;13.93;;;11.70;99.90;;;;;;5107984;28;20118;-50
2022/11/04 08:44:29;;;;;;;23.23;12.73;;;12.20;99.90;;;;;;5097059;28;20039;-51
2022/11/04 08:46:54;;;;;;;22.93;15.27;;;12.40;99.90;;;;;;5098744;28;20039;-53
2022/11/04 08:49:20;;;;;;;16.77;13.47;;;12.50;99.90;;;;;;5109294;28;20046;-52
2022/11/04 08:51:48;;;;;;;18.77;14.35;;;12.70;99.90;;;;;;5110346;28;20032;-52
2022/11/04 08:54:14;;;;;;;20.42;14.27;;;12.90;99.90;;;;;;5104930;28;20035;-54
2022/11/04 08:56:40;;;;;;;19.45;14.48;;;13.10;99.90;;;;;;5109012;28;20065;-50
2022/11/04 08:59:05;;;;;;;19.77;14.50;;;13.20;99.90;;;;;;5108775;28;20040;-52
2022/11/04 09:01:34;;;;;;;17.58;13.85;;;13.10;99.90;;;;;;5089896;28;20286;-51
2022/11/04 09:04:00;;;;;;;19.33;14.23;;;13.10;99.90;;;;;;5097947;28;20040;-51
2022/11/04 09:06:32;;;;;;;19.98;14.82;;;13.00;99.90;;;;;;5099560;28;20583;-51
2022/11/04 09:09:02;;;;;;;21.90;15.82;;;12.80;99.90;;;;;;5096354;28;20071;-53
2022/11/04 09:11:28;;;;;;;21.85;16.10;;;12.40;99.90;;;;;;5096315;28;20046;-51
2022/11/04 09:13:55;;;;;;;40.65;17.08;;;12.20;99.90;;;;;;5100330;28;20035;-54
2022/11/04 09:16:20;;;;;;;;;;;12.00;99.90;;;;;;5098300;28;20164;-51
2022/11/04 09:18:46;;;;;;;22.33;17.00;;;11.90;99.90;;;;;;5097803;28;20010;-51
2022/11/04 09:21:12;;;;;;;26.40;18.03;;;11.80;99.90;;;;;;5079064;28;20386;-50
2022/11/04 09:23:38;;;;;;;27.98;19.02;;;11.60;99.90;;;;;;5084130;28;21109;-50
2022/11/04 09:26:10;;;;;;;28.93;19.70;;;11.50;99.90;;;;;;5084487;28;20427;-54
2022/11/04 09:28:36;;;;;;;27.33;19.35;;;11.50;99.90;;;;;;5086559;28;20027;-53
2022/11/04 09:31:11;;;;;;;31.10;21.00;;;11.60;99.90;;;;;;5089865;28;20031;-52
2022/11/04 09:33:37;;;;;;;28.23;20.33;;;11.60;99.90;;;;;;5089670;28;20031;-54
2022/11/04 09:36:03;;;;;;;29.42;22.00;;;11.60;99.90;;;;;;5100081;28;20580;-51
2022/11/04 09:38:29;;;;;;;33.25;22.90;;;11.50;99.90;;;;;;5097917;28;20036;-50
2022/11/04 09:40:55;;;;;;;34.13;22.48;;;11.40;99.90;;;;;;5097050;28;20039;-52
2022/11/04 09:43:52;;;;;;;32.58;22.20;;;11.40;99.90;;;;;;5092856;28;20036;-49
2022/11/04 09:46:19;;;;;;;33.67;21.75;;;11.40;99.90;;;;;;5072687;28;20055;-52
2022/11/04 09:48:48;;;;;;;34.83;23.40;;;11.40;99.90;;;;;;5073125;28;20099;-52
2022/11/04 09:51:17;;;;;;;34.80;24.52;;;11.40;99.90;;;;;;5110933;28;20116;-54
2022/11/04 09:53:50;;;;;;;36.80;24.77;;;11.30;99.90;;;;;;5113258;28;20043;-53
2022/11/04 09:56:19;;;;;;;37.55;25.48;;;11.30;99.90;;;;;;5113442;28;20092;-53
2022/11/04 09:58:45;;;;;;;34.17;23.70;;;11.40;99.90;;;;;;5113289;28;20066;-51
2022/11/04 10:01:30;;;;;;;30.67;23.52;;;11.40;99.90;;;;;;5091118;28;20270;-49
2022/11/04 10:04:17;;;;;;;31.30;23.08;;;11.40;99.90;;;;;;5076875;28;20121;-52
2022/11/04 10:07:10;;;;;;;32.17;23.97;;;11.50;99.90;;;;;;5086711;28;20044;-53
2022/11/04 10:10:12;;;;;;;37.05;23.67;;;11.60;99.90;;;;;;5096925;28;20719;-53
2022/11/04 10:13:17;;;;;;;35.45;23.70;;;11.50;99.90;;;;;;5098633;28;20036;-50
2022/11/04 10:16:02;;;;;;;26.23;21.50;;;11.50;99.90;;;;;;5096989;28;20044;-50
2022/11/04 10:18:55;;;;;;;37.50;22.05;;;11.50;99.90;;;;;;5097623;28;20515;-51
2022/11/04 10:21:38;;;;;;;28.75;21.52;;;11.60;99.90;;;;;;5092206;28;20092;-52
2022/11/04 10:24:06;;;;;;;25.33;20.58;;;11.70;99.90;;;;;;5094797;28;20082;-50
2022/11/04 10:26:45;;;;;;;31.20;22.77;;;11.80;99.90;;;;;;5094799;28;20372;-50
2022/11/04 10:29:18;;;;;;;31.45;19.83;;;11.80;99.90;;;;;;5096230;28;20403;-49
2022/11/04 10:31:46;;;;;;;29.73;22.25;;;11.90;99.90;;;;;;5096870;28;20389;-49
2022/11/04 10:34:27;;;;;;;25.98;19.05;;;12.10;99.90;;;;;;5097336;28;20032;-50
2022/11/04 10:36:55;;;;;;;26.77;20.00;;;12.30;99.90;;;;;;5096325;28;20493;-51
2022/11/04 10:39:29;;;;;;;28.55;20.95;;;12.50;99.90;;;;;;5096282;28;20036;-50
2022/11/04 10:41:57;;;;;;;25.52;18.92;;;12.60;99.90;;;;;;5095308;28;20118;-51
2022/11/04 10:44:32;;;;;;;26.73;19.55;;;12.80;99.90;;;;;;5094124;28;20092;-50
2022/11/04 10:47:20;;;;;;;24.77;19.27;;;12.90;99.90;;;;;;5083758;28;20512;-52
2022/11/04 10:49:54;;;;;;;;;;;12.90;99.90;;;;;;5074782;28;20237;-50
2022/11/04 10:52:20;;;;;;;24.02;18.10;;;12.90;99.90;;;;;;5084427;28;20431;-51
2022/11/04 10:54:47;;;;;;;24.30;18.45;;;12.80;99.90;;;;;;5086251;28;20123;-52
2022/11/04 10:57:25;;;;;;;22.88;17.85;;;12.70;99.90;;;;;;5084473;28;20049;-52
2022/11/04 11:00:00;;;;;;;25.65;18.60;;;12.50;99.90;;;;;;5081147;28;20044;-49
2022/11/04 11:02:51;;;;;;;24.17;18.17;;;12.50;99.90;;;;;;5085395;28;20083;-53
2022/11/04 11:05:17;;;;;;;23.92;16.70;;;12.60;99.90;;;;;;5080978;28;20055;-51
2022/11/04 11:07:48;;;;;;;23.10;17.50;;;12.90;99.90;;;;;;5086148;28;20393;-53
2022/11/04 11:10:21;;;;;;;21.92;17.63;;;13.10;99.90;;;;;;5086858;28;20035;-52
2022/11/04 11:12:53;;;;;;;19.52;15.98;;;13.20;99.90;;;;;;5086306;28;20491;-51
2022/11/04 11:15:35;;;;;;;22.67;17.13;;;13.30;99.90;;;;;;5087122;28;20123;-50
2022/11/04 11:18:07;;;;;;;24.35;17.35;;;13.40;99.90;;;;;;5086143;28;20203;-50
2022/11/04 11:20:36;;;;;;;19.00;15.10;;;13.60;99.90;;;;;;5083494;28;20170;-53
2022/11/04 11:23:08;;;;;;;29.73;16.33;;;13.90;99.90;;;;;;5084492;28;20048;-53
2022/11/04 11:25:43;;;;;;;24.77;16.08;;;14.10;99.90;;;;;;5087270;28;20117;-53
2022/11/04 11:28:11;;;;;;;17.23;13.68;;;14.40;99.90;;;;;;5080194;28;20032;-52
2022/11/04 11:30:52;;;;;;;22.30;16.10;;;14.50;99.90;;;;;;5085753;28;20036;-50
2022/11/04 11:33:30;;;;;;;21.10;15.32;;;14.70;99.90;;;;;;5085079;28;20050;-51
2022/11/04 11:35:58;;;;;;;22.08;15.15;;;14.70;99.90;;;;;;5086323;28;20028;-50
2022/11/04 11:38:32;;;;;;;19.45;14.57;;;14.80;99.90;;;;;;5074890;28;20029;-50
2022/11/04 11:41:12;;;;;;;17.45;14.02;;;15.00;99.90;;;;;;5084437;28;20049;-51
2022/11/04 11:43:43;;;;;;;13.70;11.50;;;15.20;99.90;;;;;;5075502;28;20117;-52
2022/11/04 11:46:10;;;;;;;18.45;13.65;;;15.20;99.90;;;;;;5083665;28;20064;-55
2022/11/04 11:48:42;;;;;;;18.88;13.57;;;15.20;99.90;;;;;;5077803;28;20045;-52
2022/11/04 11:51:12;;;;;;;15.18;12.90;;;15.30;99.90;;;;;;5069524;28;20121;-53
2022/11/04 11:53:44;;;;;;;14.80;12.48;;;15.30;99.90;;;;;;5077152;28;20032;-51
2022/11/04 11:56:29;;;;;;;15.73;12.05;;;15.40;99.90;;;;;;5077049;28;20439;-51
2022/11/04 11:59:06;;;;;;;18.05;12.52;;;15.40;99.90;;;;;;5086125;28;20047;-53
2022/11/04 12:02:01;;;;;;;;;;;15.40;99.90;;;;;;5080601;28;20170;-52
2022/11/04 12:04:26;;;;;;;14.02;12.43;;;15.30;99.90;;;;;;5084316;28;19923;-53
2022/11/04 12:07:17;;;;;;;18.75;12.93;;;15.10;99.90;;;;;;5086213;28;20036;-50
2022/11/04 12:10:13;;;;;;;14.15;12.10;;;15.10;99.90;;;;;;5085378;28;20032;-53
2022/11/04 12:12:59;;;;;;;17.63;12.18;;;15.20;99.90;;;;;;5079733;28;20039;-54
2022/11/04 12:16:00;;;;;;;13.25;10.88;;;15.30;99.90;;;;;;5083482;28;20040;-51
2022/11/04 12:18:32;;;;;;;13.85;10.88;;;15.50;99.90;;;;;;5083486;28;20047;-52
2022/11/04 12:21:20;;;;;;;13.77;11.75;;;15.60;99.90;;;;;;5084336;28;20493;-53
2022/11/04 12:23:54;;;;;;;12.55;11.23;;;15.80;99.90;;;;;;5078675;28;20048;-54
2022/11/04 12:26:38;;;;;;;13.32;10.95;;;16.00;99.90;;;;;;5081463;28;20032;-55
2022/11/04 12:29:32;;;;;;;13.23;10.77;;;16.10;99.90;;;;;;5085711;28;20085;-54
2022/11/04 12:32:19;;;;;;;12.63;9.57;;;16.30;99.90;;;;;;5087141;28;20119;-53
2022/11/04 12:35:09;;;;;;;15.65;11.50;;;16.50;99.90;;;;;;5085246;28;20089;-52
2022/11/04 12:37:51;;;;;;;13.82;9.65;;;16.60;99.90;;;;;;5085369;28;20032;-51
2022/11/04 12:40:52;;;;;;;15.02;9.73;;;16.70;99.90;;;;;;5082141;28;20157;-50
2022/11/04 12:43:23;;;;;;;11.40;8.23;;;16.70;99.90;;;;;;5079485;28;20065;-53
2022/11/04 12:46:18;;;;;;;13.50;9.70;;;16.90;99.90;;;;;;5078292;28;20090;-50
2022/11/04 12:49:19;;;;;;;16.33;9.98;;;17.20;99.90;;;;;;5081953;28;20496;-53
2022/11/04 12:52:06;;;;;;;12.10;9.40;;;17.20;99.90;;;;;;5008829;28;20077;-50
2022/11/04 12:54:42;;;;;;;13.98;10.38;;;17.10;99.90;;;;;;5041515;28;20088;-54
2022/11/04 12:57:38;;;;;;;15.68;10.68;;;17.10;99.90;;;;;;5041073;28;20548;-53
2022/11/04 13:00:09;;;;;;;17.40;10.52;;;17.30;99.90;;;;;;5041839;28;20569;-50
2022/11/04 13:02:47;;;;;;;14.35;9.00;;;17.40;99.90;;;;;;5045278;28;20427;-53
2022/11/04 13:05:54;;;;;;;13.63;7.57;;;17.40;99.90;;;;;;5049243;28;20092;-55
2022/11/04 13:08:53;;;;;;;14.52;10.20;;;17.50;99.90;;;;;;4947699;29;20118;-52
2022/11/04 13:11:28;;;;;;;12.52;9.07;;;17.70;99.90;;;;;;4947632;29;20040;-52
2022/11/04 13:14:03;;;;;;;14.20;9.00;;;17.90;99.90;;;;;;4946875;29;20405;-54
2022/11/04 13:16:33;;;;;;;10.18;8.13;;;17.80;99.90;;;;;;4947291;29;20035;-53
2022/11/04 13:18:59;;;;;;;12.10;9.27;;;17.70;99.90;;;;;;4947934;29;20047;-51
2022/11/04 13:21:30;;;;;;;14.65;8.85;;;17.40;99.90;;;;;;4947303;29;20145;-54
2022/11/04 13:24:03;;;;;;;11.82;9.18;;;17.20;99.90;;;;;;4947245;29;20047;-52
2022/11/04 13:26:30;;;;;;;7.05;4.25;;;16.70;99.90;;;;;;4951722;28;20047;-54
2022/11/04 13:29:11;;;;;;;1.95;0.45;;;16.50;99.90;;;;;;4986015;28;20030;-53
2022/11/04 13:32:10;;;;;;;51.17;3.05;;;16.10;98.70;;;;;;4990941;28;20034;-54
2022/11/04 13:34:56;;;;;;;2.20;0.20;;;15.70;98.80;;;;;;4985653;28;20044;-52
2022/11/04 13:37:34;;;;;;;1.88;0.13;;;15.30;99.00;;;;;;4987178;28;20085;-52